Time;durP1;ratioP1;P1;durP2;ratioP2;P2;SDS_P1;SDS_P2;PMS_P1;PMS_P2;Temp;Humidity;BMP_temperature;BMP_pressure;BME280_temperature;BME280_humidity;BME280_pressure;Samples;Min_cycle;Max_cycle;Signal;HPM_P1;HPM_P2
2020/12/02 00:01:23;;;;;;;;;;;20.70;53.10;;;;;;5040502;28;19919;-75
2020/12/02 00:04:09;;;;;;;;;;;20.70;53.10;;;;;;5037593;28;20420;-78
2020/12/02 00:06:55;;;;;;;;;;;20.60;53.10;;;;;;5035427;28;19924;-78
2020/12/02 00:09:41;;;;;;;;;;;20.70;53.20;;;;;;5038244;28;19920;-78
2020/12/02 00:12:27;;;;;;;;;;;20.60;52.90;;;;;;5031872;28;20352;-76
2020/12/02 00:15:12;;;;;;;;;;;20.60;52.70;;;;;;5037412;28;19917;-77
2020/12/02 00:17:58;;;;;;;;;;;20.60;52.50;;;;;;5036189;28;19917;-80
2020/12/02 00:20:44;;;;;;;;;;;20.60;52.40;;;;;;5033463;28;19913;-80
2020/12/02 00:23:30;;;;;;;;;;;20.60;52.20;;;;;;5033773;28;19971;-70
2020/12/02 00:25:56;;;;;;;;;;;20.60;52.10;;;;;;5034069;28;19917;-81
2020/12/02 00:28:22;;;;;;;;;;;20.50;52.00;;;;;;5035369;28;19920;-81
2020/12/02 00:30:48;;;;;;;;;;;20.50;51.90;;;;;;5031886;28;20369;-78
2020/12/02 00:33:17;;;;;;;;;;;20.50;51.80;;;;;;5031696;28;19960;-76
2020/12/02 00:35:43;;;;;;;;;;;20.50;51.80;;;;;;5032565;28;20429;-81
2020/12/02 00:38:12;;;;;;;;;;;20.50;51.70;;;;;;5031640;28;19935;-79
2020/12/02 00:40:44;;;;;;;;;;;20.50;51.60;;;;;;5031497;28;20000;-76
2020/12/02 00:43:11;;;;;;;;;;;20.50;51.50;;;;;;5031797;28;19972;-78
2020/12/02 00:45:37;;;;;;;;;;;20.50;51.40;;;;;;5033345;28;19917;-79
2020/12/02 00:48:04;;;;;;;;;;;20.40;51.30;;;;;;5030277;28;20004;-81
2020/12/02 00:50:30;;;;;;;;;;;20.40;51.20;;;;;;5032380;28;19922;-77
2020/12/02 00:52:57;;;;;;;;;;;20.40;51.10;;;;;;5030353;28;19917;-75
2020/12/02 00:55:24;;;;;;;;;;;20.40;51.00;;;;;;5029829;28;19913;-80
2020/12/02 00:57:50;;;;;;;;;;;20.40;50.80;;;;;;5031320;28;19924;-77
2020/12/02 01:00:17;;;;;;;;;;;20.40;50.50;;;;;;5032366;28;19967;-77
2020/12/02 01:02:50;;;;;;;;;;;20.40;50.30;;;;;;5031859;28;19936;-81
2020/12/02 01:05:17;;;;;;;;;;;20.40;50.10;;;;;;5034096;28;19963;-74
2020/12/02 01:07:44;;;;;;;;;;;20.40;49.80;;;;;;5032519;28;19914;-74
2020/12/02 01:10:11;;;;;;;;;;;20.40;49.70;;;;;;5031944;28;19913;-80
2020/12/02 01:12:44;;;;;;;;;;;20.30;49.70;;;;;;5033614;28;19963;-76
2020/12/02 01:15:11;;;;;;;;;;;20.30;50.30;;;;;;5029759;28;19920;-77
2020/12/02 01:17:37;;;;;;;;;;;20.30;49.70;;;;;;5035567;28;19940;-77
2020/12/02 01:20:12;;;;;;;;;;;20.30;49.70;;;;;;5043555;28;19913;-80
2020/12/02 01:22:43;;;;;;;;;;;20.30;49.60;;;;;;5040728;28;19909;-80
2020/12/02 01:25:17;;;;;;;;;;;20.30;49.60;;;;;;5042517;28;20701;-76
2020/12/02 01:27:53;;;;;;;;;;;20.30;49.60;;;;;;5036131;28;20399;-77
2020/12/02 01:30:19;;;;;;;;;;;20.30;49.60;;;;;;5040309;28;20024;-79
2020/12/02 01:32:45;;;;;;;;;;;20.30;49.60;;;;;;5041174;28;19918;-82
2020/12/02 01:35:12;;;;;;;;;;;20.30;49.70;;;;;;5038169;28;19913;-77
2020/12/02 01:37:42;;;;;;;;;;;20.30;49.70;;;;;;5037206;28;20287;-81
2020/12/02 01:40:08;;;;;;;;;;;20.30;49.80;;;;;;5035536;28;19925;-77
2020/12/02 01:42:34;;;;;;;;;;;20.20;50.00;;;;;;5038424;28;19960;-76
2020/12/02 01:45:04;;;;;;;;;;;20.20;50.10;;;;;;5040745;28;19924;-80
2020/12/02 01:47:30;;;;;;;;;;;20.20;50.20;;;;;;5036448;28;19913;-82
2020/12/02 01:50:08;;;;;;;;;;;20.20;50.30;;;;;;5035271;28;19924;-81
2020/12/02 01:52:53;;;;;;;;;;;20.20;50.30;;;;;;5034439;28;20209;-79
2020/12/02 01:55:29;;;;;;;;;;;20.10;50.10;;;;;;5034155;28;19924;-73
2020/12/02 01:57:59;;;;;;;;;;;20.10;50.10;;;;;;5037171;28;20008;-80
2020/12/02 02:00:28;;;;;;;;;;;20.10;49.90;;;;;;5041008;28;19999;-82
2020/12/02 02:03:10;;;;;;;;;;;20.10;49.90;;;;;;5036969;28;19919;-77
2020/12/02 02:05:51;;;;;;;;;;;20.10;49.90;;;;;;5039564;28;20360;-83
2020/12/02 02:08:19;;;;;;;;;;;20.10;49.80;;;;;;5036974;28;19917;-82
2020/12/02 02:10:46;;;;;;;;;;;20.10;49.80;;;;;;5034064;28;19913;-82
2020/12/02 02:13:12;;;;;;;;;;;20.00;49.70;;;;;;5038459;28;19932;-81
2020/12/02 02:15:41;;;;;;;;;;;20.00;49.70;;;;;;5034210;28;19917;-82
2020/12/02 02:18:10;;;;;;;;;;;20.00;49.60;;;;;;5035515;28;19947;-77
2020/12/02 02:20:37;;;;;;;;;;;20.00;49.50;;;;;;5034435;28;19913;-81
2020/12/02 02:23:05;;;;;;;;;;;20.00;49.50;;;;;;5036693;28;19931;-81
2020/12/02 02:25:33;;;;;;;;;;;20.00;49.40;;;;;;5034253;28;19913;-81
2020/12/02 02:28:00;;;;;;;;;;;20.00;49.30;;;;;;5033446;28;19996;-81
2020/12/02 02:30:26;;;;;;;;;;;20.00;49.10;;;;;;5032491;28;19940;-79
2020/12/02 02:32:53;;;;;;;;;;;20.00;49.00;;;;;;5037652;28;19995;-76
2020/12/02 02:35:19;;;;;;;;;;;19.90;48.80;;;;;;5034501;28;19921;-80
2020/12/02 02:37:45;;;;;;;;;;;19.90;48.80;;;;;;5033692;28;20290;-81
2020/12/02 02:40:12;;;;;;;;;;;19.90;48.80;;;;;;5036215;28;20723;-80
2020/12/02 02:42:39;;;;;;;;;;;19.90;48.70;;;;;;5034569;28;20364;-80
2020/12/02 02:45:11;;;;;;;;;;;19.90;48.70;;;;;;5038557;28;19925;-83
2020/12/02 02:47:38;;;;;;;;;;;19.90;48.60;;;;;;5036622;28;19913;-81
2020/12/02 02:50:05;;;;;;;;;;;19.90;48.60;;;;;;5037537;28;20356;-80
2020/12/02 02:52:31;;;;;;;;;;;19.90;48.60;;;;;;5032954;28;19920;-78
2020/12/02 02:54:58;;;;;;;;;;;19.80;48.60;;;;;;5034398;28;20391;-80
2020/12/02 02:57:24;;;;;;;;;;;19.80;48.60;;;;;;5036607;28;19913;-77
2020/12/02 02:59:50;;;;;;;;;;;19.80;48.60;;;;;;5033785;28;20315;-81
2020/12/02 03:02:16;;;;;;;;;;;19.80;48.70;;;;;;5037850;28;20412;-80
2020/12/02 03:04:42;;;;;;;;;;;19.80;48.80;;;;;;5031986;28;19925;-86
2020/12/02 03:07:12;;;;;;;;;;;19.80;48.90;;;;;;5040102;28;19924;-80
2020/12/02 03:09:38;;;;;;;;;;;19.80;49.00;;;;;;5035868;28;20306;-83
2020/12/02 03:12:04;;;;;;;;;;;19.80;49.10;;;;;;5037976;28;19913;-86
2020/12/02 03:14:30;;;;;;;;;;;19.80;49.00;;;;;;5035363;28;19959;-84
2020/12/02 03:16:58;;;;;;;;;;;19.80;49.00;;;;;;5034572;28;19917;-73
2020/12/02 03:19:30;;;;;;;;;;;19.80;49.00;;;;;;5035909;28;19913;-85
2020/12/02 03:21:59;;;;;;;;;;;19.80;49.00;;;;;;5032740;28;19920;-85
2020/12/02 03:24:26;;;;;;;;;;;19.80;49.00;;;;;;5034882;28;19921;-85
2020/12/02 03:26:52;;;;;;;;;;;19.70;49.00;;;;;;5031977;28;19913;-80
2020/12/02 03:29:19;;;;;;;;;;;19.70;49.00;;;;;;5038454;28;20477;-77
2020/12/02 03:31:45;;;;;;;;;;;19.70;49.10;;;;;;5034127;28;19913;-82
2020/12/02 03:34:12;;;;;;;;;;;19.70;49.20;;;;;;5033903;28;19913;-79
2020/12/02 03:36:58;;;;;;;;;;;19.70;49.30;;;;;;5031881;28;20359;-74
2020/12/02 03:39:44;;;;;;;;;;;19.70;49.30;;;;;;5033113;28;19962;-80
2020/12/02 03:42:30;;;;;;;;;;;19.70;49.50;;;;;;5034454;28;19944;-79
2020/12/02 03:45:16;;;;;;;;;;;19.70;49.50;;;;;;5037446;28;19925;-80
2020/12/02 03:48:02;;;;;;;;;;;19.70;49.60;;;;;;5036061;28;19913;-79
2020/12/02 03:50:48;;;;;;;;;;;19.70;49.70;;;;;;5034394;28;19948;-82
2020/12/02 03:53:34;;;;;;;;;;;19.70;49.70;;;;;;5031186;28;19920;-73
2020/12/02 03:56:20;;;;;;;;;;;19.70;49.80;;;;;;5036003;28;19961;-72
2020/12/02 03:59:06;;;;;;;;;;;19.60;49.80;;;;;;5033795;28;19956;-76
2020/12/02 04:01:52;;;;;;;;;;;19.70;50.00;;;;;;5030750;28;20256;-77
2020/12/02 04:04:38;;;;;;;;;;;19.70;50.10;;;;;;5034302;28;19925;-74
2020/12/02 04:07:24;;;;;;;;;;;19.70;50.20;;;;;;5032580;28;20421;-75
2020/12/02 04:10:10;;;;;;;;;;;19.70;50.20;;;;;;5030985;28;19921;-77
2020/12/02 04:12:56;;;;;;;;;;;19.60;50.20;;;;;;5032185;28;20020;-79
2020/12/02 04:15:41;;;;;;;;;;;19.60;50.80;;;;;;5033270;28;19917;-75
2020/12/02 04:18:27;;;;;;;;;;;19.60;50.10;;;;;;5033770;28;19944;-75
2020/12/02 04:21:13;;;;;;;;;;;19.60;50.10;;;;;;5034415;28;19977;-81
2020/12/02 04:23:59;;;;;;;;;;;19.60;50.00;;;;;;5032869;28;19932;-71
2020/12/02 04:26:45;;;;;;;;;;;19.60;50.00;;;;;;5037621;28;19920;-77
2020/12/02 04:29:31;;;;;;;;;;;19.70;50.00;;;;;;5031790;28;19920;-76
2020/12/02 04:32:17;;;;;;;;;;;19.60;49.90;;;;;;5032575;28;19951;-76
2020/12/02 04:35:03;;;;;;;;;;;19.70;50.00;;;;;;5033317;28;19996;-76
2020/12/02 04:37:52;;;;;;;;;;;19.60;50.00;;;;;;5062555;28;19967;-72
2020/12/02 04:40:30;;;;;;;;;;;19.70;50.10;;;;;;5032639;28;19924;-75
2020/12/02 04:43:20;;;;;;;;;;;19.60;50.00;;;;;;5029218;28;19967;-76
2020/12/02 04:46:05;;;;;;;;;;;19.60;50.00;;;;;;5023547;28;19917;-74
2020/12/02 04:48:51;;;;;;;;;;;19.60;50.00;;;;;;5034929;28;19975;-75
2020/12/02 04:51:41;;;;;;;;;;;19.70;50.10;;;;;;5034132;28;19921;-76
2020/12/02 04:54:26;;;;;;;;;;;19.70;50.10;;;;;;5030292;28;19917;-74
2020/12/02 04:57:12;;;;;;;;;;;19.70;50.10;;;;;;5035726;28;20443;-73
2020/12/02 04:59:58;;;;;;;;;;;19.70;50.00;;;;;;5034168;28;19920;-72
2020/12/02 05:02:44;;;;;;;;;;;19.70;49.90;;;;;;5036300;28;20117;-73
2020/12/02 05:05:30;;;;;;;;;;;19.70;49.80;;;;;;5031777;28;19931;-73
2020/12/02 05:08:16;;;;;;;;;;;19.70;49.60;;;;;;5033371;28;19913;-75
2020/12/02 05:11:02;;;;;;;;;;;19.70;49.30;;;;;;5029488;28;19913;-73
2020/12/02 05:13:48;;;;;;;;;;;19.70;49.00;;;;;;5030975;28;19917;-73
2020/12/02 05:16:34;;;;;;;;;;;19.70;48.80;;;;;;5031527;28;19913;-72
2020/12/02 05:19:19;;;;;;;;;;;19.80;48.90;;;;;;5065878;28;19917;-73
2020/12/02 05:22:06;;;;;;;;;;;19.80;49.00;;;;;;5035380;28;19940;-74
2020/12/02 05:24:51;;;;;;;;;;;19.80;49.00;;;;;;5032880;28;19925;-71
2020/12/02 05:27:37;;;;;;;;;;;19.80;49.00;;;;;;5031976;28;19920;-73
2020/12/02 05:30:03;;;;;;;;;;;19.80;49.00;;;;;;5033620;28;19913;-74
2020/12/02 05:32:50;;;;;;;;;;;19.90;49.00;;;;;;5029370;28;19917;-74
2020/12/02 05:35:35;;;;;;;;;;;19.90;49.00;;;;;;5034022;28;19913;-74
2020/12/02 05:38:21;;;;;;;;;;;19.90;49.00;;;;;;5032663;28;20310;-73
2020/12/02 05:41:07;;;;;;;;;;;20.00;49.10;;;;;;5036232;28;20431;-74
2020/12/02 05:43:53;;;;;;;;;;;20.00;49.10;;;;;;5032069;28;19921;-73
2020/12/02 05:46:42;;;;;;;;;;;20.00;49.10;;;;;;5034003;28;19967;-74
2020/12/02 05:49:28;;;;;;;;;;;20.00;49.10;;;;;;5033643;28;19951;-74
2020/12/02 05:52:14;;;;;;;;;;;20.00;49.10;;;;;;5036229;28;19921;-74
2020/12/02 05:55:00;;;;;;;;;;;20.00;49.10;;;;;;5030862;28;19913;-74
2020/12/02 05:57:45;;;;;;;;;;;20.10;49.00;;;;;;5030547;28;19959;-74
2020/12/02 06:03:45;;;;;;;;;;;20.10;49.00;;;;;;4984699;28;19921;-75
2020/12/02 06:10:02;;;;;;;;;;;20.20;48.80;;;;;;4889434;29;19915;-74
2020/12/02 06:12:48;;;;;;;;;;;20.20;48.60;;;;;;4986689;28;19914;-74
2020/12/02 06:15:39;;;;;;;;;;;20.30;48.40;;;;;;5018120;28;19919;-74
2020/12/02 06:18:32;;;;;;;;;;;20.30;48.30;;;;;;5034636;28;19913;-74
2020/12/02 06:21:18;;;;;;;;;;;20.40;48.00;;;;;;5033407;28;19913;-74
2020/12/02 06:24:04;;;;;;;;;;;20.40;47.70;;;;;;5031763;28;19948;-74
2020/12/02 06:26:59;;;;;;;;;;;20.40;47.30;;;;;;5034173;28;19921;-73
2020/12/02 06:29:51;;;;;;;;;;;20.40;46.50;;;;;;5035672;28;19970;-74
2020/12/02 06:32:38;;;;;;;;;;;20.50;46.20;;;;;;5033402;28;19918;-74
2020/12/02 06:35:33;;;;;;;;;;;20.50;46.00;;;;;;5036287;28;19913;-74
2020/12/02 06:38:28;;;;;;;;;;;20.50;46.10;;;;;;5032502;28;19913;-72
2020/12/02 06:40:58;;;;;;;;;;;20.60;46.20;;;;;;5037606;28;19917;-76
2020/12/02 06:43:43;;;;;;;;;;;20.60;46.20;;;;;;5033234;28;20054;-74
2020/12/02 06:46:29;;;;;;;;;;;20.60;46.10;;;;;;5034525;28;19913;-73
2020/12/02 06:49:16;;;;;;;;;;;20.70;46.00;;;;;;5037586;28;20315;-72
2020/12/02 06:52:09;;;;;;;;;;;20.70;45.80;;;;;;5036866;28;19924;-73
2020/12/02 06:54:54;;;;;;;;;;;20.80;45.70;;;;;;5028553;28;19913;-74
2020/12/02 06:57:21;;;;;;;;;;;20.80;45.60;;;;;;5037043;28;20279;-72
2020/12/02 07:00:12;;;;;;;;;;;20.80;45.50;;;;;;5030848;28;20000;-72
2020/12/02 07:02:58;;;;;;;;;;;20.90;45.30;;;;;;5033021;28;19909;-72
2020/12/02 07:05:54;;;;;;;;;;;20.90;45.10;;;;;;5033813;28;19975;-72
2020/12/02 07:08:20;;;;;;;;;;;21.00;44.80;;;;;;5034719;28;19913;-72
2020/12/02 07:11:04;;;;;;;;;;;21.00;44.40;;;;;;5031571;28;19917;-72
2020/12/02 07:13:50;;;;;;;;;;;21.00;44.00;;;;;;5034478;28;20391;-74
2020/12/02 07:16:45;;;;;;;;;;;21.00;43.50;;;;;;5034063;28;19939;-74
2020/12/02 07:19:31;;;;;;;;;;;21.10;43.30;;;;;;5032207;28;20019;-73
2020/12/02 07:22:17;;;;;;;;;;;21.10;43.30;;;;;;5033097;28;20395;-73
2020/12/02 07:25:03;;;;;;;;;;;21.20;43.10;;;;;;5031853;28;19925;-74
2020/12/02 07:27:49;;;;;;;;;;;21.20;42.90;;;;;;5031883;28;19939;-72
2020/12/02 07:30:50;;;;;;;;;;;21.20;42.90;;;;;;5030603;28;20251;-72
2020/12/02 07:33:16;;;;;;;;;;;21.20;42.70;;;;;;5032137;28;19920;-73
2020/12/02 07:36:02;;;;;;;;;;;21.30;42.50;;;;;;5034127;28;19948;-72
2020/12/02 07:38:48;;;;;;;;;;;21.30;42.30;;;;;;5035731;28;20342;-73
2020/12/02 07:41:34;;;;;;;;;;;21.40;42.30;;;;;;5037204;28;19982;-73
2020/12/02 07:44:20;;;;;;;;;;;21.40;42.20;;;;;;5035057;28;20024;-73
2020/12/02 07:47:06;;;;;;;;;;;21.50;42.10;;;;;;5040462;28;20371;-73
2020/12/02 07:49:52;;;;;;;;;;;21.50;41.80;;;;;;5037461;28;19927;-73
2020/12/02 07:52:37;;;;;;;;;;;21.60;41.80;;;;;;5034475;28;19917;-73
2020/12/02 07:55:23;;;;;;;;;;;21.70;40.70;;;;;;5035156;28;19917;-75
2020/12/02 07:58:09;;;;;;;;;;;21.80;40.20;;;;;;5036349;28;19914;-74
2020/12/02 08:00:55;;;;;;;;;;;22.00;40.10;;;;;;5041300;28;19920;-75
2020/12/02 08:03:45;;;;;;;;;;;22.10;40.30;;;;;;5038733;28;19925;-73
2020/12/02 08:06:11;;;;;;;;;;;22.20;40.00;;;;;;5038036;28;19914;-75
2020/12/02 08:08:37;;;;;;;;;;;22.30;39.50;;;;;;5039486;28;19917;-75
2020/12/02 08:11:32;;;;;;;;;;;22.40;39.50;;;;;;5037906;28;19919;-75
2020/12/02 08:14:18;;;;;;;;;;;22.40;39.30;;;;;;5032733;28;20020;-74
2020/12/02 08:17:03;;;;;;;;;;;22.50;39.00;;;;;;5038628;28;20306;-75
2020/12/02 08:19:49;;;;;;;;;;;22.60;39.00;;;;;;5038112;28;19948;-75
2020/12/02 08:22:41;;;;;;;;;;;22.70;38.70;;;;;;5038764;28;19919;-75
2020/12/02 08:25:46;;;;;;;;;;;22.80;38.70;;;;;;5036706;28;19944;-74
2020/12/02 08:28:32;;;;;;;;;;;22.80;37.40;;;;;;4979534;28;20049;-72
2020/12/02 08:31:18;;;;;;;;;;;22.80;37.50;;;;;;4973964;28;20366;-75
2020/12/02 08:34:03;;;;;;;;;;;22.90;38.30;;;;;;5017462;28;19917;-73
2020/12/02 08:36:48;;;;;;;;;;;23.00;37.60;;;;;;5039242;28;20326;-74
2020/12/02 08:39:34;;;;;;;;;;;23.10;37.50;;;;;;5035090;28;19913;-74
2020/12/02 08:42:20;;;;;;;;;;;23.30;37.50;;;;;;5034626;28;19921;-73
2020/12/02 08:45:24;;;;;;;;;;;23.40;37.60;;;;;;5034515;28;19921;-75
2020/12/02 08:48:27;;;;;;;;;;;23.60;37.20;;;;;;5030833;28;20210;-75
2020/12/02 08:51:12;;;;;;;;;;;23.70;36.90;;;;;;5029796;28;19920;-73
2020/12/02 08:53:58;;;;;;;;;;;23.80;36.80;;;;;;5030196;28;19913;-72
2020/12/02 08:56:24;;;;;;;;;;;23.90;36.70;;;;;;5031878;28;19913;-72
2020/12/02 08:59:16;;;;;;;;;;;24.00;36.20;;;;;;5031577;28;19916;-72
2020/12/02 09:02:02;;;;;;;;;;;24.00;36.40;;;;;;5031988;28;20363;-71
2020/12/02 09:04:48;;;;;;;;;;;24.10;36.00;;;;;;5031845;28;19928;-71
2020/12/02 09:07:34;;;;;;;;;;;24.10;36.10;;;;;;5032243;28;19917;-71
2020/12/02 09:10:20;;;;;;;;;;;24.20;36.10;;;;;;5031993;28;19972;-71
2020/12/02 09:12:46;;;;;;;;;;;24.30;35.80;;;;;;5029020;28;19913;-71
2020/12/02 09:15:12;;;;;;;;;;;24.40;35.90;;;;;;5031141;28;19920;-71
2020/12/02 09:17:38;;;;;;;;;;;24.50;36.40;;;;;;5032086;28;19919;-71
2020/12/02 09:20:05;;;;;;;;;;;24.60;36.10;;;;;;5031092;28;19909;-71
2020/12/02 09:22:31;;;;;;;;;;;24.70;35.80;;;;;;5030205;28;20371;-71
2020/12/02 09:24:57;;;;;;;;;;;24.70;35.40;;;;;;5031453;28;19928;-74
2020/12/02 09:27:23;;;;;;;;;;;24.80;35.10;;;;;;5029581;28;19924;-72
2020/12/02 09:29:52;;;;;;;;;;;24.80;35.70;;;;;;5031053;28;20323;-72
2020/12/02 09:32:18;;;;;;;;;;;24.80;35.50;;;;;;5030194;28;19940;-73
2020/12/02 09:34:45;;;;;;;;;;;24.90;35.70;;;;;;5031968;28;19920;-70
2020/12/02 09:37:12;;;;;;;;;;;25.00;35.30;;;;;;5033668;28;19913;-71
2020/12/02 09:39:39;;;;;;;;;;;25.20;35.60;;;;;;5035493;28;19914;-71
2020/12/02 09:42:24;;;;;;;;;;;25.30;35.00;;;;;;5033257;28;19925;-71
2020/12/02 09:45:04;;;;;;;;;;;25.40;35.20;;;;;;5047585;28;20459;-71
2020/12/02 09:47:30;;;;;;;;;;;25.40;34.50;;;;;;5034164;28;19936;-71
2020/12/02 09:49:56;;;;;;;;;;;25.50;34.70;;;;;;5038174;28;20027;-71
2020/12/02 09:52:38;;;;;;;;;;;25.50;35.10;;;;;;5033485;28;19917;-72
2020/12/02 09:55:10;;;;;;;;;;;25.60;35.00;;;;;;5033357;28;20015;-73
2020/12/02 09:57:36;;;;;;;;;;;25.70;34.80;;;;;;5032887;28;20001;-71
2020/12/02 10:00:04;;;;;;;;;;;25.70;34.30;;;;;;5035696;28;20000;-75
2020/12/02 10:02:36;;;;;;;;;;;25.70;34.50;;;;;;5037885;28;19913;-74
2020/12/02 10:05:14;;;;;;;;;;;25.80;35.00;;;;;;5034776;28;20039;-71
2020/12/02 10:07:46;;;;;;;;;;;25.90;34.30;;;;;;5034198;28;20433;-73
2020/12/02 10:10:19;;;;;;;;;;;26.00;35.00;;;;;;5066337;28;19948;-70
2020/12/02 10:12:45;;;;;;;;;;;26.10;33.90;;;;;;5032468;28;20443;-72
2020/12/02 10:15:40;;;;;;;;;;;26.10;33.70;;;;;;5036752;28;20293;-75
2020/12/02 10:18:24;;;;;;;;;;;26.20;33.90;;;;;;5017176;28;20391;-72
2020/12/02 10:20:59;;;;;;;;;;;26.30;36.70;;;;;;5035507;28;19970;-72
2020/12/02 10:23:38;;;;;;;;;;;26.30;36.80;;;;;;5037439;28;19924;-72
2020/12/02 10:26:17;;;;;;;;;;;26.40;37.30;;;;;;5034077;28;19917;-72
2020/12/02 10:28:55;;;;;;;;;;;26.50;37.70;;;;;;5032013;28;19913;-71
2020/12/02 10:31:36;;;;;;;;;;;26.40;37.30;;;;;;5031609;28;20003;-71
2020/12/02 10:34:12;;;;;;;;;;;26.50;37.50;;;;;;5033859;28;19917;-71
2020/12/02 10:36:43;;;;;;;;;;;26.40;38.30;;;;;;5031445;28;19917;-72
2020/12/02 10:39:12;;;;;;;;;;;26.50;38.30;;;;;;5033378;28;19917;-72
2020/12/02 10:41:44;;;;;;;;;;;26.40;38.20;;;;;;5037337;28;19927;-72
2020/12/02 10:44:19;;;;;;;;;;;26.50;38.50;;;;;;5035818;28;20422;-72
2020/12/02 10:47:01;;;;;;;;;;;26.40;38.30;;;;;;5037528;28;19971;-72
2020/12/02 10:49:29;;;;;;;;;;;26.40;38.70;;;;;;5035867;28;19940;-73
2020/12/02 10:51:56;;;;;;;;;;;26.30;38.70;;;;;;5031981;28;20290;-72
2020/12/02 10:54:24;;;;;;;;;;;26.30;39.10;;;;;;5032135;28;19936;-72
2020/12/02 10:56:54;;;;;;;;;;;26.30;39.00;;;;;;5031299;28;19919;-72
2020/12/02 10:59:20;;;;;;;;;;;26.40;38.60;;;;;;5039440;28;19948;-71
2020/12/02 11:01:48;;;;;;;;;;;26.40;38.70;;;;;;5036023;28;19913;-71
2020/12/02 11:04:15;;;;;;;;;;;26.30;38.70;;;;;;5035984;28;20340;-71
2020/12/02 11:07:00;;;;;;;;;;;26.30;38.90;;;;;;5033144;28;19913;-71
2020/12/02 11:09:38;;;;;;;;;;;26.30;38.70;;;;;;5032072;28;20323;-70
2020/12/02 11:12:22;;;;;;;;;;;26.40;39.10;;;;;;5033199;28;19943;-71
2020/12/02 11:15:07;;;;;;;;;;;26.40;38.80;;;;;;5033324;28;19913;-72
2020/12/02 11:17:33;;;;;;;;;;;26.50;38.40;;;;;;5033707;28;20431;-71
2020/12/02 11:19:59;;;;;;;;;;;26.50;38.50;;;;;;5063986;28;19952;-71
2020/12/02 11:22:43;;;;;;;;;;;26.50;38.50;;;;;;5032853;28;19968;-70
2020/12/02 11:25:26;;;;;;;;;;;26.50;38.50;;;;;;5034406;28;19921;-70
2020/12/02 11:27:53;;;;;;;;;;;26.50;38.60;;;;;;5031289;28;20339;-71
2020/12/02 11:30:22;;;;;;;;;;;26.50;38.70;;;;;;5034826;28;19921;-70
2020/12/02 11:33:07;;;;;;;;;;;26.50;38.20;;;;;;5065587;28;19960;-71
2020/12/02 11:35:53;;;;;;;;;;;26.50;38.60;;;;;;5033078;28;19917;-71
2020/12/02 11:38:45;;;;;;;;;;;26.60;38.00;;;;;;5064544;28;20384;-71
2020/12/02 11:41:30;;;;;;;;;;;26.40;38.00;;;;;;5025661;28;19913;-71
2020/12/02 11:43:58;;;;;;;;;;;26.50;38.20;;;;;;5042511;28;20300;-71
2020/12/02 11:46:25;;;;;;;;;;;26.70;38.40;;;;;;5031229;28;19913;-70
2020/12/02 11:48:51;;;;;;;;;;;26.70;38.00;;;;;;5030056;28;19913;-71
2020/12/02 11:51:32;;;;;;;;;;;26.70;38.20;;;;;;5032509;28;19909;-71
2020/12/02 11:54:03;;;;;;;;;;;26.80;38.20;;;;;;5030914;28;20473;-71
2020/12/02 11:56:35;;;;;;;;;;;26.80;38.00;;;;;;5047247;28;19920;-72
2020/12/02 11:59:05;;;;;;;;;;;26.90;38.00;;;;;;5031854;28;19920;-72
2020/12/02 12:01:35;;;;;;;;;;;26.90;37.90;;;;;;5030987;28;19913;-72
2020/12/02 12:04:14;;;;;;;;;;;26.90;37.90;;;;;;5031923;28;19921;-72
2020/12/02 12:06:40;;;;;;;;;;;26.90;38.00;;;;;;5031826;28;19921;-72
2020/12/02 12:09:26;;;;;;;;;;;27.00;38.10;;;;;;5031727;28;19916;-73
2020/12/02 12:11:55;;;;;;;;;;;27.10;38.00;;;;;;5029375;28;19920;-73
2020/12/02 12:14:36;;;;;;;;;;;27.20;37.90;;;;;;5047590;28;20292;-72
2020/12/02 12:17:22;;;;;;;;;;;27.20;37.50;;;;;;5033093;28;19913;-73
2020/12/02 12:19:52;;;;;;;;;;;27.20;37.80;;;;;;5032925;28;20000;-72
2020/12/02 12:22:27;;;;;;;;;;;27.30;36.90;;;;;;5031335;28;19920;-72
2020/12/02 12:24:55;;;;;;;;;;;27.30;37.10;;;;;;5034595;28;21210;-73
2020/12/02 12:27:21;;;;;;;;;;;27.30;37.40;;;;;;5031577;28;19948;-72
2020/12/02 12:29:48;;;;;;;;;;;27.20;37.40;;;;;;5031550;28;19919;-72
2020/12/02 12:32:17;;;;;;;;;;;27.20;37.30;;;;;;5030406;28;19921;-72
2020/12/02 12:35:04;;;;;;;;;;;27.20;37.70;;;;;;5032567;28;19920;-71
2020/12/02 12:37:39;;;;;;;;;;;27.20;37.80;;;;;;5032103;28;20008;-72
2020/12/02 12:40:15;;;;;;;;;;;27.20;38.30;;;;;;5029156;28;19913;-72
2020/12/02 12:42:42;;;;;;;;;;;27.20;37.60;;;;;;5032562;28;20319;-72
2020/12/02 12:45:19;;;;;;;;;;;27.20;37.70;;;;;;5032901;28;20011;-72
2020/12/02 12:47:47;;;;;;;;;;;27.20;37.70;;;;;;5034189;28;19913;-72
2020/12/02 12:50:13;;;;;;;;;;;27.10;37.90;;;;;;5030842;28;19909;-71
2020/12/02 12:52:39;;;;;;;;;;;27.10;37.70;;;;;;5035866;28;19951;-72
2020/12/02 12:55:05;;;;;;;;;;;27.00;38.80;;;;;;5035144;28;19913;-72
2020/12/02 12:57:32;;;;;;;;;;;27.00;38.30;;;;;;5029561;28;19920;-71
2020/12/02 12:59:59;;;;;;;;;;;26.90;38.40;;;;;;5032436;28;20372;-71
2020/12/02 13:02:32;;;;;;;;;;;26.90;38.40;;;;;;5033658;28;20386;-71
2020/12/02 13:04:58;;;;;;;;;;;26.90;38.20;;;;;;5029354;28;19921;-72
2020/12/02 13:07:24;;;;;;;;;;;26.80;38.40;;;;;;5031428;28;20038;-72
2020/12/02 13:10:11;;;;;;;;;;;26.70;38.50;;;;;;5031339;28;19913;-72
2020/12/02 13:12:52;;;;;;;;;;;26.70;38.90;;;;;;5035293;28;19924;-71
2020/12/02 13:15:23;;;;;;;;;;;26.70;39.00;;;;;;5034215;28;19917;-71
2020/12/02 13:17:58;;;;;;;;;;;26.70;38.50;;;;;;5036631;28;20360;-71
2020/12/02 13:20:31;;;;;;;;;;;26.60;38.70;;;;;;5037877;28;19917;-72
2020/12/02 13:23:10;;;;;;;;;;;26.50;39.10;;;;;;5034106;28;19928;-71
2020/12/02 13:25:43;;;;;;;;;;;26.50;39.10;;;;;;5036172;28;19934;-71
2020/12/02 13:28:31;;;;;;;;;;;26.50;39.40;;;;;;5034749;28;20012;-71
2020/12/02 13:30:58;;;;;;;;;;;26.30;39.80;;;;;;5034886;28;20412;-71
2020/12/02 13:33:30;;;;;;;;;;;26.20;40.00;;;;;;5035138;28;19952;-71
2020/12/02 13:35:57;;;;;;;;;;;26.10;40.10;;;;;;5035930;28;19924;-71
2020/12/02 13:38:23;;;;;;;;;;;26.10;40.20;;;;;;5034790;28;20027;-72
2020/12/02 13:40:53;;;;;;;;;;;26.10;40.20;;;;;;5032516;28;19956;-72
2020/12/02 13:43:23;;;;;;;;;;;26.20;40.20;;;;;;5038303;28;20427;-72
2020/12/02 13:45:49;;;;;;;;;;;26.10;39.90;;;;;;5033835;28;20288;-71
2020/12/02 13:48:16;;;;;;;;;;;26.20;39.90;;;;;;5034765;28;19913;-72
2020/12/02 13:50:43;;;;;;;;;;;26.10;39.90;;;;;;5034110;28;19913;-71
2020/12/02 13:53:12;;;;;;;;;;;26.20;40.00;;;;;;5034276;28;19913;-72
2020/12/02 13:56:01;;;;;;;;;;;26.20;39.90;;;;;;5035396;28;19917;-71
2020/12/02 13:58:43;;;;;;;;;;;26.10;39.80;;;;;;5030970;28;19924;-71
2020/12/02 14:01:24;;;;;;;;;;;26.20;40.00;;;;;;5038151;28;19960;-71
2020/12/02 14:04:02;;;;;;;;;;;26.20;39.90;;;;;;5034769;28;20659;-71
2020/12/02 14:06:28;;;;;;;;;;;26.20;40.00;;;;;;5034176;28;19956;-71
2020/12/02 14:08:55;;;;;;;;;;;26.10;40.10;;;;;;5034634;28;20007;-72
2020/12/02 14:11:59;;;;;;;;;;;26.00;40.20;;;;;;5033430;28;19967;-72
2020/12/02 14:14:33;;;;;;;;;;;26.00;40.30;;;;;;4987853;28;19917;-72
2020/12/02 14:16:59;;;;;;;;;;;26.00;40.20;;;;;;4986337;28;19949;-70
2020/12/02 14:19:28;;;;;;;;;;;26.00;40.20;;;;;;5010304;28;20003;-72
2020/12/02 14:22:13;;;;;;;;;;;26.00;40.40;;;;;;5033007;28;19921;-73
2020/12/02 14:25:00;;;;;;;;;;;25.90;40.20;;;;;;5035058;28;20364;-70
2020/12/02 14:27:46;;;;;;;;;;;25.90;40.10;;;;;;5036261;28;20018;-70
2020/12/02 14:30:32;;;;;;;;;;;25.90;40.30;;;;;;5034399;28;20303;-71
2020/12/02 14:33:18;;;;;;;;;;;25.90;40.30;;;;;;5032965;28;19923;-71
2020/12/02 14:36:04;;;;;;;;;;;25.90;40.00;;;;;;5036271;28;20002;-72
2020/12/02 14:38:50;;;;;;;;;;;25.90;40.00;;;;;;5031822;28;19987;-71
2020/12/02 14:41:36;;;;;;;;;;;25.90;40.10;;;;;;5031664;28;19913;-75
2020/12/02 14:44:22;;;;;;;;;;;25.90;40.30;;;;;;5037286;28;19921;-77
2020/12/02 14:47:07;;;;;;;;;;;25.90;40.30;;;;;;5036328;28;19962;-73
2020/12/02 14:49:53;;;;;;;;;;;25.90;40.00;;;;;;5037699;28;19917;-74
2020/12/02 14:52:39;;;;;;;;;;;25.80;40.10;;;;;;5063389;28;20378;-74
2020/12/02 14:55:25;;;;;;;;;;;25.80;39.80;;;;;;5034212;28;19940;-74
2020/12/02 14:58:10;;;;;;;;;;;25.90;39.30;;;;;;5034268;28;19916;-71
2020/12/02 15:00:56;;;;;;;;;;;25.80;39.10;;;;;;5066004;28;19914;-71
2020/12/02 15:03:41;;;;;;;;;;;25.80;39.50;;;;;;5032561;28;21253;-72
2020/12/02 15:06:27;;;;;;;;;;;25.70;39.60;;;;;;5033846;28;19924;-72
2020/12/02 15:09:19;;;;;;;;;;;25.60;39.90;;;;;;5033524;28;20375;-73
2020/12/02 15:12:08;;;;;;;;;;;25.60;40.20;;;;;;5033631;28;20367;-76
2020/12/02 15:14:54;;;;;;;;;;;25.40;40.40;;;;;;5033255;28;19967;-72
2020/12/02 15:17:40;;;;;;;;;;;25.40;40.80;;;;;;5034411;28;19913;-75
2020/12/02 15:20:26;;;;;;;;;;;25.40;41.30;;;;;;5035482;28;20391;-76
2020/12/02 15:23:12;;;;;;;;;;;25.40;41.30;;;;;;5033422;28;19927;-72